KMWH/MWH METAR and TAF weather

Enter ICAO airport designator
Station Type Date Time Source
KMWH METAR 2021/06/22 22:52 UTC NOAA

KMWH 222252Z 21012G19KT 10SM CLR 36/07 A2969 RMK AO2 SLP043 T03610067


Station Type Date Time Source
KMWH Decoded METAR 2021/06/22 22:52 UTC NOAA

GRANT COUNTY AIRPORT, WA, United States (KMWH) 47-12N 119-19W 362M
Jun 22, 2021 - 06:52 PM EDT / 2021.06.22 2252 UTC
Wind: from the SSW (210 degrees) at 14 MPH (12 KT) gusting to 22 MPH (19 KT):0
Visibility: 10 mile(s):0
Sky conditions: clear
Temperature: 97.0 F (36.1 C)
Dew Point: 44.1 F (6.7 C)
Relative Humidity: 16%
Pressure (altimeter): 29.69 in. Hg (1005 hPa)
ob: KMWH 222252Z 21012G19KT 10SM CLR 36/07 A2969 RMK AO2 SLP043 T03610067
cycle: 23

Station Type Date Time Source
KMWH TAF 2021/06/22 18:28 UTC NOAA

TAF KMWH 221726Z 2218/2318 23009KT P6SM FEW250
FM222100 22012G18KT P6SM SCT250
FM230300 23008KT P6SM FEW250
FM231700 20007KT P6SM FEW200

Example: see airport list